Dawu, China
Current Conditions -  °F | °C
As of 2:00 AM on Tuesday 25 Nov 2014 (Local Time) from ZUUU Reporting Station
Smoke Smoke  
Wind Chill: 50°   Ceiling: Unl
Heat Index: 50°   Visibility: 2.5mi
Dew Point: 48°   Wind: 2mph
Humidity: 94%   Direction: 220°SW
Pressure: 30.15"   Gusts: NA
Location:  30.98°N, 101.12°E
Report Text: ZUUU 241800Z 22001MPS 4000 FU BR NSC 10/09 Q1021 NOSIG
Loading
Personal Weather Stations






























Interactive Weather Map New forecast layout! Learn more

10-Day Weather Forecast

Advertisements
Track Severe Weather on mobile